Time;durP1;ratioP1;P1;durP2;ratioP2;P2;SDS_P1;SDS_P2;PMS_P1;PMS_P2;Temp;Humidity;BMP_temperature;BMP_pressure;BME280_temperature;BME280_humidity;BME280_pressure;Samples;Min_cycle;Max_cycle;Signal;HPM_P1;HPM_P2
2022/06/26 00:01:20;;;;;;;6.22;5.47;;;;;;;23.42;59.33;101069.94;5035399;28;20148;-58
2022/06/26 00:03:50;;;;;;;9.27;5.03;;;;;;;23.39;59.33;101065.63;5035740;28;20045;-59
2022/06/26 00:06:19;;;;;;;8.85;4.88;;;;;;;23.36;59.20;101064.94;5035451;28;20648;-58
2022/06/26 00:08:52;;;;;;;7.05;5.28;;;;;;;23.33;59.25;101062.47;5035774;28;20115;-58
2022/06/26 00:11:20;;;;;;;7.07;5.07;;;;;;;23.28;59.72;101068.88;5035344;28;20060;-58
2022/06/26 00:13:48;;;;;;;6.93;5.07;;;;;;;23.24;59.65;101064.72;5035431;28;20064;-58
2022/06/26 00:16:15;;;;;;;5.78;5.13;;;;;;;23.21;59.57;101067.53;5035313;28;20061;-58
2022/06/26 00:18:46;;;;;;;10.05;5.90;;;;;;;23.19;59.72;101068.56;5035378;28;20049;-58
2022/06/26 00:21:14;;;;;;;5.80;4.90;;;;;;;23.16;59.73;101063.44;5035377;28;20053;-58
2022/06/26 00:23:45;;;;;;;6.30;4.88;;;;;;;23.12;59.85;101070.69;5035280;28;20173;-58
2022/06/26 00:26:24;;;;;;;10.57;5.50;;;;;;;23.11;59.92;101068.97;5035381;28;20049;-59
2022/06/26 00:28:55;;;;;;;7.65;6.15;;;;;;;23.07;60.05;101070.09;5035166;28;20081;-58
2022/06/26 00:31:23;;;;;;;9.00;5.88;;;;;;;23.05;60.18;101076.41;5035180;28;20041;-58
2022/06/26 00:33:49;;;;;;;7.00;6.03;;;;;;;23.01;60.23;101081.00;5034874;28;20501;-58
2022/06/26 00:36:18;;;;;;;8.20;6.03;;;;;;;22.98;60.29;101075.88;5033607;28;20058;-58
2022/06/26 00:38:49;;;;;;;8.70;5.47;;;;;;;22.95;60.45;101083.97;5014649;28;20064;-58
2022/06/26 00:41:18;;;;;;;11.30;6.60;;;;;;;22.92;60.39;101073.56;5029520;28;20508;-57
2022/06/26 00:43:48;;;;;;;11.07;5.72;;;;;;;22.89;60.48;101076.34;5033238;28;20305;-58
2022/06/26 00:46:17;;;;;;;9.00;5.82;;;;;;;22.88;60.59;101079.94;5034607;28;20057;-58
2022/06/26 00:48:45;;;;;;;7.85;5.35;;;;;;;22.86;60.74;101081.81;5034387;28;20092;-58
2022/06/26 00:51:16;;;;;;;8.05;5.55;;;;;;;22.83;60.65;101081.97;5034777;28;20462;-58
2022/06/26 00:53:46;;;;;;;9.75;5.90;;;;;;;22.80;60.90;101085.63;5035015;28;20140;-58
2022/06/26 00:56:14;;;;;;;7.32;5.40;;;;;;;22.79;60.77;101085.69;5034544;28;20402;-58
2022/06/26 00:58:46;;;;;;;7.75;6.10;;;;;;;22.76;60.75;101080.56;5034257;28;20455;-58
2022/06/26 01:01:16;;;;;;;6.97;5.57;;;;;;;22.73;60.80;101086.00;5034940;28;20049;-58
2022/06/26 01:03:45;;;;;;;6.03;5.43;;;;;;;22.69;61.11;101085.31;5034961;28;20136;-58
2022/06/26 01:06:16;;;;;;;6.63;5.78;;;;;;;22.67;61.12;101090.69;5034483;28;20152;-58
2022/06/26 01:08:44;;;;;;;6.60;5.55;;;;;;;22.65;61.16;101089.06;5034462;28;20049;-58
2022/06/26 01:11:20;;;;;;;7.78;6.03;;;;;;;22.62;61.17;101090.09;5034467;28;20080;-58
2022/06/26 01:14:03;;;;;;;9.93;6.47;;;;;;;22.60;61.28;101086.66;5033859;28;20466;-58
2022/06/26 01:16:34;;;;;;;6.93;5.47;;;;;;;22.57;61.54;101092.13;5034626;28;20063;-58
2022/06/26 01:19:04;;;;;;;7.03;5.53;;;;;;;22.55;61.58;101095.78;5034096;28;20049;-58
2022/06/26 01:21:33;;;;;;;10.07;5.35;;;;;;;22.53;61.68;101090.56;5034372;28;20067;-58
2022/06/26 01:24:22;;;;;;;7.15;5.60;;;;;;;22.50;61.61;101096.00;5034516;28;20053;-58
2022/06/26 01:26:49;;;;;;;7.50;6.18;;;;;;;22.45;61.96;101095.41;5034402;28;20054;-58
2022/06/26 01:29:18;;;;;;;9.15;7.13;;;;;;;22.45;62.09;101090.13;5034053;28;20084;-58
2022/06/26 01:31:46;;;;;;;9.57;5.90;;;;;;;22.45;62.05;101091.91;5034387;28;20056;-58
2022/06/26 01:34:17;;;;;;;9.40;6.60;;;;;;;22.43;61.92;101092.00;5019050;28;20060;-58
2022/06/26 01:36:46;;;;;;;8.27;6.20;;;;;;;22.39;61.98;101089.59;5018623;28;20136;-58
2022/06/26 01:39:21;;;;;;;8.13;5.68;;;;;;;22.38;61.84;101091.38;5033756;28;20466;-58
2022/06/26 01:41:50;;;;;;;6.80;5.50;;;;;;;22.36;61.96;101098.50;5033965;28;20215;-57
2022/06/26 01:44:20;;;;;;;6.35;5.10;;;;;;;22.34;62.01;101092.44;5033454;28;20057;-56
2022/06/26 01:46:48;;;;;;;6.32;5.15;;;;;;;22.34;62.02;101095.06;5033363;28;20446;-58
2022/06/26 01:49:15;;;;;;;6.85;5.60;;;;;;;22.31;61.79;101089.94;5032358;28;20068;-58
2022/06/26 01:51:43;;;;;;;10.90;5.63;;;;;;;22.30;61.67;101098.81;5033186;28;20478;-58
2022/06/26 01:54:14;;;;;;;8.02;5.95;;;;;;;22.27;61.81;101097.19;5033065;28;20062;-59
2022/06/26 01:56:51;;;;;;;8.77;7.00;;;;;;;22.26;61.42;101092.84;5033494;28;20057;-57
2022/06/26 01:59:19;;;;;;;7.60;5.43;;;;;;;22.24;61.70;101099.97;5033048;28;20128;-58
2022/06/26 02:01:50;;;;;;;7.05;6.35;;;;;;;22.21;61.87;101107.19;5033424;28;20516;-58
2022/06/26 02:04:21;;;;;;;8.15;6.43;;;;;;;22.15;62.18;101107.53;5033808;28;20049;-58
2022/06/26 02:06:51;;;;;;;6.13;5.53;;;;;;;22.13;62.12;101107.59;5033504;28;20378;-58
2022/06/26 02:14:50;;;;;;;7.80;5.75;;;;;;;22.06;62.13;101105.34;5032164;28;20071;-58
2022/06/26 02:17:20;;;;;;;8.50;5.93;;;;;;;22.03;62.09;101101.94;5033522;28;20053;-58
2022/06/26 02:19:50;;;;;;;8.48;5.20;;;;;;;22.01;62.25;101108.19;5032992;28;20037;-58
2022/06/26 02:22:19;;;;;;;7.00;6.03;;;;;;;22.01;62.35;101103.75;5033108;28;20050;-57
2022/06/26 02:24:56;;;;;;;9.05;6.60;;;;;;;22.00;62.51;101107.31;5032911;28;20056;-58
2022/06/26 02:27:29;;;;;;;6.63;5.65;;;;;;;21.97;62.58;101112.75;5033251;28;20533;-58
2022/06/26 02:29:56;;;;;;;7.00;6.30;;;;;;;21.94;62.81;101110.28;5032606;28;20132;-58
2022/06/26 02:32:24;;;;;;;8.15;6.22;;;;;;;21.92;62.84;101112.13;5033340;28;20045;-58
2022/06/26 02:34:51;;;;;;;7.03;6.30;;;;;;;21.92;62.84;101109.50;5033228;28;20064;-58
2022/06/26 02:37:21;;;;;;;9.55;6.20;;;;;;;21.93;62.83;101110.34;5033334;28;20088;-58
2022/06/26 02:39:51;;;;;;;8.48;5.70;;;;;;;21.92;62.71;101108.66;5031707;28;20093;-57
2022/06/26 02:42:20;;;;;;;9.77;5.72;;;;;;;21.91;62.85;101110.44;5032811;28;20359;-58
2022/06/26 02:44:50;;;;;;;8.68;6.45;;;;;;;21.91;62.85;101110.44;5023375;28;20115;-58
2022/06/26 02:47:20;;;;;;;8.57;6.18;;;;;;;21.92;62.94;101108.66;5032935;28;20057;-58
2022/06/26 02:49:49;;;;;;;6.22;5.55;;;;;;;21.92;62.82;101120.06;5032406;28;20090;-58
2022/06/26 02:52:17;;;;;;;7.30;6.25;;;;;;;21.94;62.96;101118.19;5033204;28;20057;-58
2022/06/26 02:54:56;;;;;;;11.48;7.43;;;;;;;21.94;62.92;101123.47;5033138;28;20133;-58
2022/06/26 02:57:26;;;;;;;20.27;8.02;;;;;;;21.95;63.02;101125.19;5032815;28;20508;-58
2022/06/26 03:00:08;;;;;;;12.50;6.43;;;;;;;21.98;62.92;101125.03;5032754;28;20386;-58
2022/06/26 03:02:36;;;;;;;8.95;5.70;;;;;;;22.01;63.03;101129.31;5036313;28;20482;-54
2022/06/26 03:05:05;;;;;;;9.10;6.13;;;;;;;22.03;62.94;101128.31;5036563;28;20049;-57
2022/06/26 03:07:36;;;;;;;6.82;5.63;;;;;;;22.09;62.96;101134.22;5037069;28;20068;-58
2022/06/26 03:10:07;;;;;;;7.38;5.75;;;;;;;22.14;62.94;101129.56;5036992;28;20045;-58
2022/06/26 03:12:33;;;;;;;10.73;6.00;;;;;;;22.20;62.91;101135.41;5036843;28;20134;-59
2022/06/26 03:15:18;;;;;;;7.43;5.22;;;;;;;22.27;62.75;101131.50;5036432;28;20398;-58
2022/06/26 03:17:48;;;;;;;12.65;6.20;;;;;;;22.32;62.78;101136.56;5036849;28;20049;-58
2022/06/26 03:20:19;;;;;;;7.95;5.82;;;;;;;22.36;62.67;101132.81;5036692;28;20053;-59
2022/06/26 03:22:55;;;;;;;9.23;5.38;;;;;;;22.44;62.43;101133.31;5036444;28;20053;-58
2022/06/26 03:25:25;;;;;;;9.15;5.57;;;;;;;22.52;62.19;101136.41;5036042;28;20649;-58
2022/06/26 03:27:55;;;;;;;9.18;6.05;;;;;;;22.60;61.92;101139.50;5036776;28;20045;-57
2022/06/26 03:30:24;;;;;;;9.25;5.95;;;;;;;22.69;61.82;101140.81;5036462;28;20054;-57
2022/06/26 03:32:52;;;;;;;10.32;6.05;;;;;;;22.78;61.68;101139.47;5036471;28;20054;-55
2022/06/26 03:35:20;;;;;;;14.07;5.88;;;;;;;22.87;61.48;101133.72;5035888;28;20045;-58
2022/06/26 03:37:55;;;;;;;11.65;5.95;;;;;;;22.96;61.46;101127.97;5036377;28;20080;-58
2022/06/26 03:40:24;;;;;;;12.85;6.95;;;;;;;23.05;61.36;101139.84;5036193;28;20417;-58
2022/06/26 03:42:54;;;;;;;7.70;5.78;;;;;;;23.17;61.19;101139.19;5036350;28;20049;-58
2022/06/26 03:45:20;;;;;;;9.18;6.05;;;;;;;23.27;60.94;101141.22;5035890;28;20057;-58
2022/06/26 03:47:58;;;;;;;8.40;6.15;;;;;;;23.43;60.70;101141.28;5035995;28;20064;-58
2022/06/26 03:50:25;;;;;;;8.57;6.45;;;;;;;23.58;60.51;101144.88;5035651;28;20057;-58
2022/06/26 03:52:57;;;;;;;8.68;6.20;;;;;;;23.72;60.31;101144.94;5036063;28;20055;-58
2022/06/26 03:55:27;;;;;;;8.25;5.28;;;;;;;23.89;60.07;101152.78;5036022;28;20064;-58
2022/06/26 03:57:57;;;;;;;8.60;5.82;;;;;;;24.03;59.74;101151.16;5036166;28;20045;-59
2022/06/26 04:00:28;;;;;;;11.07;6.55;;;;;;;24.20;59.57;101148.38;5035886;28;20140;-58
2022/06/26 04:03:06;;;;;;;10.93;6.18;;;;;;;24.37;59.38;101156.22;5035857;28;20057;-58
2022/06/26 04:05:37;;;;;;;8.13;6.82;;;;;;;24.58;58.92;101155.91;5035983;28;20057;-59
2022/06/26 04:08:06;;;;;;;10.05;7.30;;;;;;;24.77;58.50;101149.38;5035486;28;20053;-58
2022/06/26 04:10:37;;;;;;;10.52;6.43;;;;;;;24.95;58.34;101152.69;5035878;28;20348;-58
2022/06/26 04:13:07;;;;;;;10.73;5.97;;;;;;;25.14;57.56;101152.47;5034912;28;20049;-58
2022/06/26 04:15:44;;;;;;;10.57;7.15;;;;;;;25.34;57.44;101167.13;5034892;28;20528;-58
2022/06/26 04:18:15;;;;;;;11.20;6.65;;;;;;;25.53;56.80;101165.03;5035565;28;20053;-58
2022/06/26 04:20:46;;;;;;;10.55;6.75;;;;;;;25.77;56.36;101159.97;5035537;28;20050;-58
2022/06/26 04:23:14;;;;;;;8.68;6.28;;;;;;;25.98;56.23;101165.66;5035615;28;20063;-59
2022/06/26 04:25:45;;;;;;;7.75;6.85;;;;;;;26.18;55.36;101167.88;5035305;28;20081;-58
2022/06/26 04:28:15;;;;;;;8.57;6.75;;;;;;;26.41;54.91;101167.19;5035539;28;20060;-58
2022/06/26 04:30:46;;;;;;;9.75;6.38;;;;;;;26.67;53.63;101168.09;5035224;28;20060;-58
2022/06/26 04:33:14;;;;;;;8.43;5.88;;;;;;;26.90;52.97;101171.81;5035052;28;20516;-57
2022/06/26 04:35:44;;;;;;;8.10;6.18;;;;;;;27.11;52.24;101168.66;5035176;28;20049;-58
2022/06/26 04:38:15;;;;;;;7.95;5.78;;;;;;;27.31;51.09;101165.44;5035397;28;20053;-58
2022/06/26 04:40:41;;;;;;;7.35;5.57;;;;;;;27.52;50.39;101171.84;5034462;28;20042;-58
2022/06/26 04:43:08;;;;;;;7.93;5.53;;;;;;;27.73;49.42;101165.97;5034661;28;20060;-58
2022/06/26 04:45:38;;;;;;;7.88;5.57;;;;;;;27.90;48.73;101176.25;5034126;28;20481;-55
2022/06/26 04:48:09;;;;;;;7.05;5.38;;;;;;;28.08;48.27;101182.84;5034733;28;20057;-58
2022/06/26 04:50:39;;;;;;;7.78;5.20;;;;;;;28.27;47.89;101177.06;5034132;28;20396;-58
2022/06/26 04:55:47;;;;;;;7.55;6.00;;;;;;;28.66;46.63;101175.84;5034662;28;20076;-58
2022/06/26 04:58:23;;;;;;;5.43;4.88;;;;;;;28.86;46.26;101180.50;5034856;28;20049;-57
2022/06/26 05:00:53;;;;;;;6.80;5.50;;;;;;;29.04;45.59;101188.03;5034426;28;20049;-59
2022/06/26 05:06:07;;;;;;;6.72;5.35;;;;;;;29.34;44.65;101185.63;5030600;28;20409;-58
2022/06/26 05:08:33;;;;;;;5.50;5.00;;;;;;;29.44;44.29;101189.28;5033881;28;20049;-58
2022/06/26 05:11:01;;;;;;;6.32;5.35;;;;;;;29.55;43.81;101179.53;5033091;28;20045;-59
2022/06/26 05:13:29;;;;;;;6.70;5.40;;;;;;;29.63;43.58;101185.09;5034046;28;20053;-58
2022/06/26 05:16:05;;;;;;;6.45;5.85;;;;;;;29.76;43.23;101180.47;5033356;28;20512;-58
2022/06/26 05:18:33;;;;;;;8.32;5.25;;;;;;;29.84;43.41;101191.38;5032433;28;20064;-58
2022/06/26 05:21:00;;;;;;;10.63;5.35;;;;;;;29.96;43.18;101192.19;5034138;28;20049;-59
2022/06/26 05:23:43;;;;;;;6.78;5.20;;;;;;;30.21;42.48;101188.38;5033610;28;20079;-58
2022/06/26 05:26:12;;;;;;;5.80;4.97;;;;;;;30.39;42.05;101195.69;5034146;28;20057;-58
2022/06/26 05:28:39;;;;;;;6.78;5.35;;;;;;;30.56;41.79;101186.25;5033769;28;20053;-59
2022/06/26 05:31:09;;;;;;;11.85;4.53;;;;;;;30.73;41.83;101199.06;5033998;28;20045;-59
2022/06/26 05:33:38;;;;;;;8.60;5.38;;;;;;;30.87;41.59;101205.06;5033242;28;20066;-59
2022/06/26 05:36:08;;;;;;;7.07;5.18;;;;;;;31.04;41.25;101201.75;5033289;28;20049;-59
2022/06/26 05:38:39;;;;;;;5.57;4.85;;;;;;;31.22;41.28;101205.56;5033540;28;20053;-58
2022/06/26 05:41:08;;;;;;;7.15;5.43;;;;;;;31.41;40.94;101199.44;5033727;28;20049;-58
2022/06/26 05:43:34;;;;;;;7.25;5.65;;;;;;;31.57;40.36;101204.25;5033074;28;20073;-58
2022/06/26 05:46:04;;;;;;;8.18;5.25;;;;;;;31.67;40.29;101205.13;5032587;28;20050;-58
2022/06/26 05:48:35;;;;;;;7.30;5.38;;;;;;;31.72;40.04;101208.25;5013953;28;20050;-58
2022/06/26 05:51:02;;;;;;;10.65;5.75;;;;;;;31.80;39.69;101205.78;5032636;28;20155;-57
2022/06/26 05:53:30;;;;;;;6.15;4.80;;;;;;;31.91;39.90;101207.47;5033309;28;20060;-57
2022/06/26 05:56:04;;;;;;;5.43;4.93;;;;;;;32.02;39.43;101204.66;5033720;28;20057;-57
2022/06/26 06:01:12;;;;;;;5.63;5.13;;;;;;;32.10;39.42;101203.94;5032329;28;20071;-56
2022/06/26 06:03:40;;;;;;;5.50;4.90;;;;;;;32.21;39.11;101204.66;5033507;28;20049;-57
2022/06/26 06:06:10;;;;;;;10.77;5.10;;;;;;;32.28;38.86;101205.84;5032901;28;20050;-59
2022/06/26 06:08:40;;;;;;;8.15;5.38;;;;;;;32.38;38.67;101208.50;5033301;28;20103;-58
2022/06/26 06:11:20;;;;;;;7.47;5.40;;;;;;;32.45;38.56;101206.94;5032183;28;20454;-58
2022/06/26 06:13:49;;;;;;;10.77;5.43;;;;;;;32.61;38.81;101206.34;5033110;28;20064;-58
2022/06/26 06:16:19;;;;;;;5.43;4.93;;;;;;;32.74;38.51;101206.88;5033321;28;20089;-58
2022/06/26 06:18:49;;;;;;;9.20;5.72;;;;;;;32.81;38.41;101207.22;5033102;28;20049;-58
2022/06/26 06:21:20;;;;;;;9.35;5.28;;;;;;;32.92;38.04;101209.72;5031900;28;20108;-57
2022/06/26 06:23:51;;;;;;;6.45;4.95;;;;;;;32.99;37.94;101209.97;5017221;28;20060;-57
2022/06/26 06:26:32;;;;;;;7.20;5.10;;;;;;;33.04;37.13;101216.59;5032385;28;20128;-57
2022/06/26 06:29:00;;;;;;;6.20;4.82;;;;;;;33.07;37.43;101213.63;5033278;28;20064;-57
2022/06/26 06:31:29;;;;;;;5.80;5.25;;;;;;;33.14;36.99;101219.25;5032993;28;20372;-59
2022/06/26 06:33:58;;;;;;;6.50;5.43;;;;;;;33.24;36.64;101220.91;5031744;28;20340;-59
2022/06/26 06:36:26;;;;;;;5.80;5.30;;;;;;;33.31;36.44;101220.38;5032659;28;20053;-59
2022/06/26 06:38:57;;;;;;;6.97;5.13;;;;;;;33.39;36.40;101218.63;5033123;28;20065;-59
2022/06/26 06:41:41;;;;;;;7.20;5.05;;;;;;;33.46;35.88;101224.25;5033081;28;20144;-59
2022/06/26 06:46:48;;;;;;;8.75;5.95;;;;;;;33.59;36.04;101222.03;5032942;28;20064;-59
2022/06/26 06:49:15;;;;;;;5.53;5.03;;;;;;;33.61;36.06;101222.75;5032355;28;20057;-59
2022/06/26 06:51:45;;;;;;;11.23;4.90;;;;;;;33.69;35.83;101222.84;5029553;28;20406;-59
2022/06/26 06:54:14;;;;;;;5.45;4.80;;;;;;;33.77;35.38;101222.91;5032336;28;20053;-58
2022/06/26 06:56:50;;;;;;;6.15;4.82;;;;;;;33.86;35.37;101222.06;5032551;28;20734;-58
2022/06/26 06:59:20;;;;;;;6.28;4.63;;;;;;;34.00;34.57;101222.53;5033092;28;20057;-59
2022/06/26 07:01:49;;;;;;;6.35;4.60;;;;;;;34.08;34.72;101219.91;5032630;28;20403;-59
2022/06/26 07:04:19;;;;;;;7.38;4.90;;;;;;;34.13;34.29;101214.91;5033049;28;20132;-59
2022/06/26 07:06:49;;;;;;;6.95;5.07;;;;;;;34.19;34.67;101217.84;5031738;28;20060;-58
2022/06/26 07:12:01;;;;;;;10.15;4.80;;;;;;;34.40;33.90;101220.25;5032721;28;20065;-59
2022/06/26 07:14:29;;;;;;;6.03;4.82;;;;;;;34.46;33.91;101224.16;5032816;28;20050;-58
2022/06/26 07:17:03;;;;;;;6.60;4.90;;;;;;;34.45;33.67;101220.63;5032449;28;20049;-58
2022/06/26 07:19:31;;;;;;;10.68;5.50;;;;;;;34.53;33.99;101224.38;5031705;28;20111;-58
2022/06/26 07:22:02;;;;;;;6.80;5.28;;;;;;;34.68;34.01;101228.19;5031082;28;20410;-58
2022/06/26 07:24:30;;;;;;;7.78;5.30;;;;;;;34.79;33.94;101230.63;5032773;28;20053;-58
2022/06/26 07:27:11;;;;;;;7.30;5.28;;;;;;;34.84;33.94;101227.50;5032850;28;20060;-58
2022/06/26 07:29:39;;;;;;;8.52;5.60;;;;;;;34.79;33.85;101219.84;5032958;28;20065;-58
2022/06/26 07:32:16;;;;;;;8.15;5.22;;;;;;;34.81;33.79;101223.22;5032881;28;20060;-58
2022/06/26 07:34:52;;;;;;;10.40;5.50;;;;;;;34.95;33.96;101219.16;5031143;28;20084;-58
2022/06/26 07:37:20;;;;;;;9.10;5.05;;;;;;;35.16;34.24;101227.69;5030025;28;20570;-58
2022/06/26 07:39:50;;;;;;;6.13;4.95;;;;;;;35.30;33.28;101229.78;5032662;28;20061;-58
2022/06/26 07:42:23;;;;;;;5.85;5.22;;;;;;;35.45;32.85;101232.75;5032214;28;20060;-58
2022/06/26 07:44:53;;;;;;;7.95;5.40;;;;;;;35.51;32.64;101221.31;5027113;28;20447;-58
2022/06/26 07:47:20;;;;;;;6.75;5.05;;;;;;;35.59;33.06;101232.13;5032076;28;20061;-59
2022/06/26 07:49:48;;;;;;;6.03;5.28;;;;;;;35.67;32.97;101232.16;5032305;28;20053;-58
2022/06/26 07:52:16;;;;;;;9.93;5.65;;;;;;;35.71;32.54;101217.34;5027789;28;20049;-59
2022/06/26 07:57:25;;;;;;;6.13;5.05;;;;;;;35.79;32.21;101221.06;5029871;28;20518;-57
2022/06/26 08:00:04;;;;;;;5.07;4.68;;;;;;;35.84;32.52;101224.13;5033760;28;20057;-57
2022/06/26 08:02:34;;;;;;;7.63;5.15;;;;;;;35.98;32.11;101223.50;5035476;28;20057;-58
2022/06/26 08:07:43;;;;;;;24.88;6.38;;;;;;;36.13;32.31;101229.94;5035034;28;20049;-57
2022/06/26 08:10:11;;;;;;;5.90;5.40;;;;;;;36.12;31.94;101222.84;5035829;28;20053;-58
2022/06/26 08:12:42;;;;;;;8.80;5.30;;;;;;;36.14;32.30;101228.06;5037857;28;20060;-57
2022/06/26 08:15:24;;;;;;;7.72;5.10;;;;;;;36.14;32.16;101223.50;5034911;28;20468;-58
2022/06/26 08:17:54;;;;;;;8.32;5.30;;;;;;;36.21;32.54;101229.94;5035442;28;20526;-57
2022/06/26 08:20:32;;;;;;;10.75;4.85;;;;;;;36.30;31.49;101218.16;5035621;28;20132;-57
2022/06/26 08:22:59;;;;;;;5.35;4.45;;;;;;;36.43;31.26;101227.63;5035244;28;20061;-58
2022/06/26 08:25:28;;;;;;;6.68;4.53;;;;;;;36.59;31.23;101238.41;5035399;28;20050;-58
2022/06/26 08:27:59;;;;;;;5.22;4.72;;;;;;;36.72;30.37;101227.94;5034347;28;20166;-58
2022/06/26 08:30:30;;;;;;;8.27;5.28;;;;;;;36.78;31.02;101238.06;5034847;28;20072;-57
2022/06/26 08:33:01;;;;;;;6.82;4.70;;;;;;;36.87;31.10;101231.63;5034806;28;20697;-58
2022/06/26 08:35:29;;;;;;;5.28;4.32;;;;;;;37.05;29.98;101238.72;5035409;28;20046;-57
2022/06/26 08:37:58;;;;;;;5.32;4.25;;;;;;;37.22;30.14;101229.53;5034332;28;20065;-58
2022/06/26 08:40:28;;;;;;;4.80;4.38;;;;;;;37.40;29.94;101232.00;5035223;28;20045;-56
2022/06/26 08:43:10;;;;;;;6.28;4.35;;;;;;;37.56;29.61;101231.97;5035083;28;20053;-57
2022/06/26 08:45:38;;;;;;;6.05;4.53;;;;;;;37.66;29.98;101235.28;5034143;28;20053;-56
2022/06/26 08:48:10;;;;;;;6.05;4.55;;;;;;;37.68;29.35;101224.28;5034551;28;20056;-58
2022/06/26 08:50:40;;;;;;;5.30;4.38;;;;;;;37.62;29.74;101228.53;5034766;28;20053;-58
2022/06/26 08:53:11;;;;;;;9.32;4.43;;;;;;;37.51;29.53;101224.38;5035006;28;20061;-58
2022/06/26 08:55:41;;;;;;;9.45;4.53;;;;;;;37.62;30.30;101228.53;5034954;28;20057;-57
2022/06/26 08:58:20;;;;;;;6.93;4.10;;;;;;;38.15;28.33;101227.75;5034430;28;20085;-58
2022/06/26 09:00:50;;;;;;;5.32;3.97;;;;;;;38.66;27.67;101230.75;5032895;28;20052;-58
2022/06/26 09:03:20;;;;;;;5.68;4.18;;;;;;;38.86;27.56;101235.63;5033877;28;20055;-58
2022/06/26 09:05:47;;;;;;;4.57;4.13;;;;;;;38.17;28.12;101220.28;5034639;28;20051;-57
2022/06/26 09:08:19;;;;;;;20.60;4.70;;;;;;;37.82;28.75;101221.69;5033827;28;20081;-57
2022/06/26 09:10:47;;;;;;;5.47;4.30;;;;;;;37.64;29.30;101225.66;5034567;28;20049;-57
2022/06/26 09:13:17;;;;;;;7.72;4.32;;;;;;;37.43;29.41;101221.69;5033979;28;20056;-57
2022/06/26 09:15:50;;;;;;;10.25;4.53;;;;;;;37.30;30.34;101226.81;5034561;28;20053;-57
2022/06/26 09:18:17;;;;;;;6.05;4.78;;;;;;;37.19;30.55;101219.06;5031809;28;20049;-61
2022/06/26 09:20:56;;;;;;;5.20;4.22;;;;;;;37.06;30.31;101218.78;5033539;28;20045;-61
2022/06/26 09:23:26;;;;;;;5.55;4.35;;;;;;;36.92;30.48;101223.84;5034621;28;20115;-61
2022/06/26 09:25:53;;;;;;;5.53;4.38;;;;;;;36.84;30.78;101221.19;5034069;28;20443;-60
2022/06/26 09:28:27;;;;;;;9.05;4.63;;;;;;;36.74;31.19;101225.88;5033575;28;20053;-61
2022/06/26 09:31:03;;;;;;;4.88;3.90;;;;;;;36.61;31.74;101231.81;5032861;28;20064;-60
2022/06/26 09:33:40;;;;;;;7.38;4.10;;;;;;;36.56;31.73;101227.94;5032369;28;20057;-61
2022/06/26 09:36:15;;;;;;;5.38;3.83;;;;;;;36.54;30.84;101229.97;5032204;28;20133;-61
2022/06/26 09:38:53;;;;;;;7.10;4.38;;;;;;;36.44;30.15;101229.31;5032200;28;20079;-61
2022/06/26 09:41:32;;;;;;;8.13;3.78;;;;;;;36.35;29.70;101231.97;5032291;28;20463;-60
2022/06/26 09:44:21;;;;;;;5.68;3.40;;;;;;;36.41;29.58;101226.91;5032260;28;20076;-60
2022/06/26 09:46:52;;;;;;;9.32;3.30;;;;;;;36.41;29.32;101229.63;5032671;28;20045;-61
2022/06/26 09:49:22;;;;;;;5.20;3.08;;;;;;;36.34;29.61;101222.19;5032873;28;20057;-60
2022/06/26 09:51:50;;;;;;;3.97;2.92;;;;;;;36.39;29.63;101221.69;5034372;28;20059;-61
2022/06/26 09:54:18;;;;;;;7.47;3.33;;;;;;;36.40;30.05;101227.94;5033699;28;20099;-61
2022/06/26 09:56:47;;;;;;;6.93;3.70;;;;;;;36.41;29.69;101218.81;5033736;28;20053;-61
2022/06/26 09:59:21;;;;;;;4.15;3.10;;;;;;;36.34;29.58;101219.50;5029100;28;20136;-58
2022/06/26 10:07:18;;;;;;;10.30;3.33;;;;;;;36.30;30.03;101217.31;5033301;28;20102;-59
2022/06/26 10:09:51;;;;;;;3.78;3.30;;;;;;;36.31;30.26;101214.44;5032858;28;20053;-59
2022/06/26 10:12:21;;;;;;;6.97;3.13;;;;;;;36.31;30.12;101214.44;5033346;28;20363;-59
2022/06/26 10:14:53;;;;;;;7.28;3.17;;;;;;;36.34;29.57;101216.81;5033106;28;20433;-59
2022/06/26 10:17:48;;;;;;;3.70;2.95;;;;;;;36.30;28.57;101211.91;5033112;28;20088;-59
2022/06/26 10:20:23;;;;;;;6.07;3.10;;;;;;;36.27;29.87;101207.66;5033082;28;20053;-59
2022/06/26 10:22:53;;;;;;;4.55;3.08;;;;;;;36.19;29.77;101218.47;5032889;28;20085;-59
2022/06/26 10:25:27;;;;;;;6.10;2.53;;;;;;;36.15;28.53;101214.41;5033140;28;20045;-59
2022/06/26 10:28:03;;;;;;;3.92;3.13;;;;;;;36.22;28.85;101211.88;5033168;28;20060;-58
2022/06/26 10:30:44;;;;;;;10.88;3.15;;;;;;;36.23;28.76;101202.78;5033157;28;20062;-58
2022/06/26 10:33:18;;;;;;;7.13;3.55;;;;;;;36.14;28.74;101204.63;5032810;28;20049;-59
2022/06/26 10:35:57;;;;;;;;;;;;;;;35.96;27.47;101220.13;5033446;28;20132;-59
2022/06/26 10:38:29;;;;;;;4.45;2.75;;;;;;;35.92;28.59;101205.28;5032807;28;20253;-59
2022/06/26 10:44:05;;;;;;;4.00;3.00;;;;;;;36.04;29.04;101196.69;5032842;28;20068;-59
2022/06/26 10:46:47;;;;;;;31.98;5.22;;;;;;;36.08;29.24;101201.75;5032979;28;20085;-59
2022/06/26 10:49:17;;;;;;;8.07;3.08;;;;;;;36.02;29.09;101209.50;5032461;28;20049;-59
2022/06/26 10:51:55;;;;;;;6.45;3.40;;;;;;;35.92;29.27;101202.59;5033148;28;20050;-59
2022/06/26 10:54:33;;;;;;;4.15;3.30;;;;;;;35.74;29.57;101206.22;5033187;28;20085;-59
2022/06/26 10:57:17;;;;;;;4.32;3.05;;;;;;;35.65;29.11;101200.97;5032558;28;20049;-59
2022/06/26 10:59:48;;;;;;;;;;;;;;;35.56;29.20;101197.41;5033179;28;20444;-59
2022/06/26 11:02:23;;;;;;;4.05;3.20;;;;;;;35.55;30.26;101217.28;5032660;28;19936;-59
2022/06/26 11:04:52;;;;;;;4.63;3.30;;;;;;;35.42;30.18;101206.13;5033221;28;20056;-58
2022/06/26 11:07:22;;;;;;;5.13;3.35;;;;;;;35.31;30.18;101203.66;5032755;28;20049;-58
2022/06/26 11:09:52;;;;;;;6.85;3.10;;;;;;;35.11;30.16;101209.31;5032951;28;20340;-58
2022/06/26 11:12:21;;;;;;;4.07;3.15;;;;;;;34.91;29.96;101205.19;5032613;28;20501;-59
2022/06/26 11:14:51;;;;;;;4.07;3.17;;;;;;;34.74;29.73;101192.56;5032884;28;20368;-59
2022/06/26 11:17:24;;;;;;;5.72;2.97;;;;;;;34.59;29.89;101196.84;5032963;28;20049;-59
2022/06/26 11:22:41;;;;;;;6.90;3.00;;;;;;;34.37;29.79;101195.50;5035489;28;20095;-59
2022/06/26 11:25:09;;;;;;;4.40;2.90;;;;;;;34.30;30.38;101189.84;5036472;28;20379;-59
2022/06/26 11:27:37;;;;;;;4.15;2.78;;;;;;;34.33;29.71;101194.94;5036582;28;20060;-59
2022/06/26 11:30:08;;;;;;;3.55;2.80;;;;;;;34.34;29.80;101204.75;5036437;28;20053;-59
2022/06/26 11:32:48;;;;;;;6.78;3.03;;;;;;;34.30;29.68;101195.22;5034354;28;20132;-59
2022/06/26 11:35:28;;;;;;;3.95;2.67;;;;;;;34.25;29.65;101197.53;5032315;28;20607;-59
2022/06/26 11:40:39;;;;;;;5.60;2.65;;;;;;;34.13;29.09;101196.09;5035955;28;20049;-59
2022/06/26 11:43:10;;;;;;;3.65;2.60;;;;;;;34.08;28.50;101195.72;5036134;28;20045;-59
2022/06/26 11:45:42;;;;;;;6.25;2.40;;;;;;;34.02;28.73;101193.63;5036117;28;20057;-59
2022/06/26 11:48:16;;;;;;;5.38;2.55;;;;;;;34.02;28.63;101182.88;5035783;28;20368;-59
2022/06/26 11:50:48;;;;;;;3.05;2.25;;;;;;;34.05;28.72;101190.63;5034745;28;20151;-59
2022/06/26 11:53:23;;;;;;;10.43;3.60;;;;;;;34.07;28.57;101178.72;5033589;28;20474;-59
2022/06/26 11:55:56;;;;;;;3.85;2.50;;;;;;;34.11;28.67;101193.56;5035562;28;20390;-59
2022/06/26 11:58:31;;;;;;;4.30;2.83;;;;;;;34.08;28.99;101193.03;5034968;28;20068;-59
2022/06/26 12:01:09;;;;;;;3.60;2.55;;;;;;;34.04;28.86;101186.25;5035978;28;20136;-59
2022/06/26 12:03:54;;;;;;;4.65;2.88;;;;;;;34.01;28.79;101191.94;5036205;28;20112;-58
2022/06/26 12:06:41;;;;;;;3.75;2.78;;;;;;;33.99;28.64;101199.31;5036167;28;20110;-59
2022/06/26 12:09:21;;;;;;;8.43;2.95;;;;;;;33.98;28.75;101194.94;5031725;28;20053;-59
2022/06/26 12:11:58;;;;;;;3.78;2.28;;;;;;;33.95;29.58;101197.94;5030985;28;20056;-57
2022/06/26 12:14:30;;;;;;;3.65;2.88;;;;;;;33.93;29.63;101191.88;5036070;28;20049;-58
2022/06/26 12:17:09;;;;;;;16.48;4.22;;;;;;;33.86;29.54;101202.41;5035763;28;20469;-59
2022/06/26 12:19:45;;;;;;;4.38;3.17;;;;;;;33.70;29.39;101194.94;5034885;28;20489;-58
2022/06/26 12:22:12;;;;;;;4.50;2.70;;;;;;;33.55;29.96;101201.84;5035315;28;20508;-58